sensor_id;sensor_type;location;lat;lon;timestamp;P1;durP1;ratioP1;P2;durP2;ratioP2
24383;SDS011;12504;52.870;8.798;2023-07-02T00:02:20;8.90;;;4.60;;
24383;SDS011;12504;52.870;8.798;2023-07-02T00:04:46;10.82;;;4.72;;
24383;SDS011;12504;52.870;8.798;2023-07-02T00:07:12;7.55;;;5.32;;
24383;SDS011;12504;52.870;8.798;2023-07-02T00:09:39;5.63;;;4.25;;
24383;SDS011;12504;52.870;8.798;2023-07-02T00:12:05;6.97;;;3.85;;
24383;SDS011;12504;52.870;8.798;2023-07-02T00:14:31;12.80;;;5.15;;
24383;SDS011;12504;52.870;8.798;2023-07-02T00:16:57;10.18;;;4.20;;
24383;SDS011;12504;52.870;8.798;2023-07-02T00:19:23;11.10;;;4.60;;
24383;SDS011;12504;52.870;8.798;2023-07-02T00:21:50;7.18;;;4.65;;
24383;SDS011;12504;52.870;8.798;2023-07-02T00:24:15;7.60;;;4.35;;
24383;SDS011;12504;52.870;8.798;2023-07-02T00:26:41;7.07;;;4.30;;
24383;SDS011;12504;52.870;8.798;2023-07-02T00:29:10;8.88;;;4.32;;
24383;SDS011;12504;52.870;8.798;2023-07-02T00:31:36;7.05;;;4.45;;
24383;SDS011;12504;52.870;8.798;2023-07-02T00:34:02;11.32;;;4.45;;
24383;SDS011;12504;52.870;8.798;2023-07-02T00:36:29;6.57;;;4.50;;
24383;SDS011;12504;52.870;8.798;2023-07-02T00:38:55;10.18;;;4.05;;
24383;SDS011;12504;52.870;8.798;2023-07-02T00:41:21;6.72;;;4.63;;
24383;SDS011;12504;52.870;8.798;2023-07-02T00:43:46;8.48;;;5.10;;
24383;SDS011;12504;52.870;8.798;2023-07-02T00:46:16;7.45;;;4.40;;
24383;SDS011;12504;52.870;8.798;2023-07-02T00:48:55;5.82;;;4.10;;
24383;SDS011;12504;52.870;8.798;2023-07-02T00:51:24;7.28;;;4.45;;
24383;SDS011;12504;52.870;8.798;2023-07-02T00:53:52;8.88;;;4.50;;
24383;SDS011;12504;52.870;8.798;2023-07-02T00:56:20;6.80;;;4.65;;
24383;SDS011;12504;52.870;8.798;2023-07-02T00:58:47;7.70;;;4.78;;
24383;SDS011;12504;52.870;8.798;2023-07-02T01:01:22;12.07;;;5.10;;
24383;SDS011;12504;52.870;8.798;2023-07-02T01:03:57;12.57;;;5.72;;
24383;SDS011;12504;52.870;8.798;2023-07-02T01:06:34;6.95;;;4.43;;
24383;SDS011;12504;52.870;8.798;2023-07-02T01:09:02;10.75;;;4.45;;
24383;SDS011;12504;52.870;8.798;2023-07-02T01:11:30;10.88;;;5.57;;
24383;SDS011;12504;52.870;8.798;2023-07-02T01:14:12;11.20;;;4.57;;
24383;SDS011;12504;52.870;8.798;2023-07-02T01:16:42;12.05;;;5.63;;
24383;SDS011;12504;52.870;8.798;2023-07-02T01:19:42;6.32;;;4.85;;
24383;SDS011;12504;52.870;8.798;2023-07-02T01:22:05;8.82;;;5.13;;
24383;SDS011;12504;52.870;8.798;2023-07-02T01:24:32;14.50;;;6.88;;
24383;SDS011;12504;52.870;8.798;2023-07-02T01:26:58;8.60;;;4.28;;
24383;SDS011;12504;52.870;8.798;2023-07-02T01:29:28;6.18;;;5.53;;
24383;SDS011;12504;52.870;8.798;2023-07-02T01:31:54;8.73;;;5.47;;
24383;SDS011;12504;52.870;8.798;2023-07-02T01:34:20;10.48;;;5.30;;
24383;SDS011;12504;52.870;8.798;2023-07-02T01:36:46;9.85;;;5.22;;
24383;SDS011;12504;52.870;8.798;2023-07-02T01:39:12;12.18;;;5.85;;
24383;SDS011;12504;52.870;8.798;2023-07-02T01:42:23;10.15;;;5.22;;
24383;SDS011;12504;52.870;8.798;2023-07-02T01:44:34;12.30;;;4.57;;
24383;SDS011;12504;52.870;8.798;2023-07-02T01:47:00;17.73;;;4.88;;
24383;SDS011;12504;52.870;8.798;2023-07-02T01:49:25;10.93;;;5.50;;
24383;SDS011;12504;52.870;8.798;2023-07-02T01:51:51;9.70;;;5.60;;
24383;SDS011;12504;52.870;8.798;2023-07-02T01:54:18;8.85;;;5.03;;
24383;SDS011;12504;52.870;8.798;2023-07-02T01:56:44;10.90;;;5.35;;
24383;SDS011;12504;52.870;8.798;2023-07-02T01:59:10;7.90;;;4.75;;
24383;SDS011;12504;52.870;8.798;2023-07-02T02:01:36;9.82;;;5.95;;
24383;SDS011;12504;52.870;8.798;2023-07-02T02:04:05;9.27;;;5.57;;
24383;SDS011;12504;52.870;8.798;2023-07-02T02:06:31;12.07;;;5.55;;
24383;SDS011;12504;52.870;8.798;2023-07-02T02:08:57;14.38;;;6.63;;
24383;SDS011;12504;52.870;8.798;2023-07-02T02:11:23;11.68;;;5.88;;
24383;SDS011;12504;52.870;8.798;2023-07-02T02:13:49;10.45;;;5.75;;
24383;SDS011;12504;52.870;8.798;2023-07-02T02:16:14;8.18;;;5.53;;
24383;SDS011;12504;52.870;8.798;2023-07-02T02:18:40;10.93;;;6.60;;
24383;SDS011;12504;52.870;8.798;2023-07-02T02:21:06;7.25;;;5.15;;
24383;SDS011;12504;52.870;8.798;2023-07-02T02:23:32;9.30;;;5.93;;
24383;SDS011;12504;52.870;8.798;2023-07-02T02:25:58;9.10;;;5.28;;
24383;SDS011;12504;52.870;8.798;2023-07-02T02:28:24;11.60;;;5.35;;
24383;SDS011;12504;52.870;8.798;2023-07-02T02:30:49;17.02;;;6.28;;
24383;SDS011;12504;52.870;8.798;2023-07-02T02:33:16;10.70;;;5.63;;
24383;SDS011;12504;52.870;8.798;2023-07-02T02:35:43;9.23;;;5.75;;
24383;SDS011;12504;52.870;8.798;2023-07-02T02:38:09;12.23;;;6.07;;
24383;SDS011;12504;52.870;8.798;2023-07-02T02:40:35;13.85;;;6.20;;
24383;SDS011;12504;52.870;8.798;2023-07-02T02:43:01;11.88;;;6.60;;
24383;SDS011;12504;52.870;8.798;2023-07-02T02:45:27;15.90;;;6.53;;
24383;SDS011;12504;52.870;8.798;2023-07-02T02:47:54;10.88;;;6.07;;
24383;SDS011;12504;52.870;8.798;2023-07-02T02:50:20;12.32;;;6.53;;
24383;SDS011;12504;52.870;8.798;2023-07-02T02:52:45;12.40;;;6.50;;
24383;SDS011;12504;52.870;8.798;2023-07-02T02:55:11;14.18;;;6.97;;
24383;SDS011;12504;52.870;8.798;2023-07-02T02:57:37;12.02;;;6.35;;
24383;SDS011;12504;52.870;8.798;2023-07-02T03:00:03;9.40;;;6.32;;
24383;SDS011;12504;52.870;8.798;2023-07-02T03:02:30;13.20;;;6.30;;
24383;SDS011;12504;52.870;8.798;2023-07-02T03:04:56;11.70;;;7.38;;
24383;SDS011;12504;52.870;8.798;2023-07-02T03:07:22;15.55;;;7.25;;
24383;SDS011;12504;52.870;8.798;2023-07-02T03:09:47;14.15;;;7.72;;
24383;SDS011;12504;52.870;8.798;2023-07-02T03:12:13;13.27;;;7.63;;
24383;SDS011;12504;52.870;8.798;2023-07-02T03:14:39;13.32;;;7.55;;
24383;SDS011;12504;52.870;8.798;2023-07-02T03:17:04;13.15;;;7.13;;
24383;SDS011;12504;52.870;8.798;2023-07-02T03:19:30;12.43;;;7.68;;
24383;SDS011;12504;52.870;8.798;2023-07-02T03:21:55;12.93;;;7.78;;
24383;SDS011;12504;52.870;8.798;2023-07-02T03:24:21;13.75;;;7.03;;
24383;SDS011;12504;52.870;8.798;2023-07-02T03:26:46;27.33;;;8.25;;
24383;SDS011;12504;52.870;8.798;2023-07-02T03:29:12;11.25;;;7.78;;
24383;SDS011;12504;52.870;8.798;2023-07-02T03:31:41;10.38;;;7.15;;
24383;SDS011;12504;52.870;8.798;2023-07-02T03:34:08;15.40;;;6.93;;
24383;SDS011;12504;52.870;8.798;2023-07-02T03:36:35;13.57;;;7.07;;
24383;SDS011;12504;52.870;8.798;2023-07-02T03:39:01;11.43;;;7.40;;
24383;SDS011;12504;52.870;8.798;2023-07-02T03:41:27;28.90;;;9.90;;
24383;SDS011;12504;52.870;8.798;2023-07-02T03:43:53;14.25;;;7.07;;
24383;SDS011;12504;52.870;8.798;2023-07-02T03:46:19;17.17;;;7.82;;
24383;SDS011;12504;52.870;8.798;2023-07-02T03:48:44;14.10;;;7.70;;
24383;SDS011;12504;52.870;8.798;2023-07-02T03:51:10;12.10;;;7.10;;
24383;SDS011;12504;52.870;8.798;2023-07-02T03:53:40;8.30;;;6.45;;
24383;SDS011;12504;52.870;8.798;2023-07-02T03:56:06;13.50;;;7.93;;
24383;SDS011;12504;52.870;8.798;2023-07-02T03:58:31;15.27;;;7.00;;
24383;SDS011;12504;52.870;8.798;2023-07-02T04:00:57;14.20;;;6.85;;
24383;SDS011;12504;52.870;8.798;2023-07-02T04:03:23;13.27;;;7.20;;
24383;SDS011;12504;52.870;8.798;2023-07-02T04:05:48;14.68;;;8.38;;
24383;SDS011;12504;52.870;8.798;2023-07-02T04:08:14;13.27;;;7.65;;
24383;SDS011;12504;52.870;8.798;2023-07-02T04:10:40;13.65;;;7.25;;
24383;SDS011;12504;52.870;8.798;2023-07-02T04:13:06;13.32;;;6.32;;
24383;SDS011;12504;52.870;8.798;2023-07-02T04:15:32;14.45;;;7.45;;
24383;SDS011;12504;52.870;8.798;2023-07-02T04:17:58;12.60;;;7.28;;
24383;SDS011;12504;52.870;8.798;2023-07-02T04:20:23;14.57;;;7.47;;
24383;SDS011;12504;52.870;8.798;2023-07-02T04:22:50;13.13;;;6.70;;
24383;SDS011;12504;52.870;8.798;2023-07-02T04:25:16;9.85;;;6.40;;
24383;SDS011;12504;52.870;8.798;2023-07-02T04:27:42;12.77;;;7.72;;
24383;SDS011;12504;52.870;8.798;2023-07-02T04:30:08;12.30;;;7.00;;
24383;SDS011;12504;52.870;8.798;2023-07-02T04:32:35;13.15;;;6.93;;
24383;SDS011;12504;52.870;8.798;2023-07-02T04:35:01;15.80;;;6.80;;
24383;SDS011;12504;52.870;8.798;2023-07-02T04:37:28;17.20;;;7.30;;
24383;SDS011;12504;52.870;8.798;2023-07-02T04:39:53;17.55;;;6.97;;
24383;SDS011;12504;52.870;8.798;2023-07-02T04:42:19;17.30;;;7.30;;
24383;SDS011;12504;52.870;8.798;2023-07-02T04:44:45;17.55;;;7.32;;
24383;SDS011;12504;52.870;8.798;2023-07-02T04:47:10;16.05;;;7.80;;
24383;SDS011;12504;52.870;8.798;2023-07-02T04:49:36;14.23;;;6.60;;
24383;SDS011;12504;52.870;8.798;2023-07-02T04:52:03;19.25;;;7.38;;
24383;SDS011;12504;52.870;8.798;2023-07-02T04:54:28;19.45;;;8.35;;
24383;SDS011;12504;52.870;8.798;2023-07-02T04:56:54;20.27;;;7.28;;
24383;SDS011;12504;52.870;8.798;2023-07-02T04:59:20;17.77;;;7.32;;
24383;SDS011;12504;52.870;8.798;2023-07-02T05:01:46;19.40;;;7.43;;
24383;SDS011;12504;52.870;8.798;2023-07-02T05:04:12;24.17;;;7.72;;
24383;SDS011;12504;52.870;8.798;2023-07-02T05:06:37;19.17;;;7.70;;
24383;SDS011;12504;52.870;8.798;2023-07-02T05:09:03;22.13;;;8.05;;
24383;SDS011;12504;52.870;8.798;2023-07-02T05:11:29;18.55;;;8.02;;
24383;SDS011;12504;52.870;8.798;2023-07-02T05:13:54;16.83;;;8.27;;
24383;SDS011;12504;52.870;8.798;2023-07-02T05:16:20;24.45;;;8.13;;
24383;SDS011;12504;52.870;8.798;2023-07-02T05:18:45;18.85;;;8.63;;
24383;SDS011;12504;52.870;8.798;2023-07-02T05:21:11;16.17;;;8.40;;
24383;SDS011;12504;52.870;8.798;2023-07-02T05:23:37;23.27;;;9.05;;
24383;SDS011;12504;52.870;8.798;2023-07-02T05:26:03;17.13;;;8.20;;
24383;SDS011;12504;52.870;8.798;2023-07-02T05:28:28;18.60;;;8.00;;
24383;SDS011;12504;52.870;8.798;2023-07-02T05:30:54;19.95;;;8.35;;
24383;SDS011;12504;52.870;8.798;2023-07-02T05:33:20;21.35;;;8.40;;
24383;SDS011;12504;52.870;8.798;2023-07-02T05:35:47;19.10;;;7.63;;
24383;SDS011;12504;52.870;8.798;2023-07-02T05:38:13;23.95;;;10.10;;
24383;SDS011;12504;52.870;8.798;2023-07-02T05:40:38;16.67;;;8.57;;
24383;SDS011;12504;52.870;8.798;2023-07-02T05:43:04;22.30;;;8.95;;
24383;SDS011;12504;52.870;8.798;2023-07-02T05:45:30;24.13;;;9.57;;
24383;SDS011;12504;52.870;8.798;2023-07-02T05:47:56;22.70;;;8.63;;
24383;SDS011;12504;52.870;8.798;2023-07-02T05:50:23;24.63;;;9.05;;
24383;SDS011;12504;52.870;8.798;2023-07-02T05:52:48;19.25;;;8.10;;
24383;SDS011;12504;52.870;8.798;2023-07-02T05:55:14;30.40;;;9.15;;
24383;SDS011;12504;52.870;8.798;2023-07-02T05:57:39;23.42;;;9.10;;
24383;SDS011;12504;52.870;8.798;2023-07-02T06:00:05;23.50;;;9.65;;
24383;SDS011;12504;52.870;8.798;2023-07-02T06:02:37;22.65;;;8.98;;
24383;SDS011;12504;52.870;8.798;2023-07-02T06:05:03;24.35;;;9.18;;
24383;SDS011;12504;52.870;8.798;2023-07-02T06:07:29;23.17;;;8.77;;
24383;SDS011;12504;52.870;8.798;2023-07-02T06:09:54;23.80;;;10.27;;
24383;SDS011;12504;52.870;8.798;2023-07-02T06:12:21;22.77;;;9.07;;
24383;SDS011;12504;52.870;8.798;2023-07-02T06:14:47;20.85;;;9.20;;
24383;SDS011;12504;52.870;8.798;2023-07-02T06:17:13;24.50;;;8.63;;
24383;SDS011;12504;52.870;8.798;2023-07-02T06:19:38;21.73;;;9.48;;
24383;SDS011;12504;52.870;8.798;2023-07-02T06:22:04;17.60;;;9.07;;
24383;SDS011;12504;52.870;8.798;2023-07-02T06:24:30;24.60;;;9.40;;
24383;SDS011;12504;52.870;8.798;2023-07-02T06:26:55;27.25;;;9.18;;
24383;SDS011;12504;52.870;8.798;2023-07-02T06:29:22;30.45;;;10.95;;
24383;SDS011;12504;52.870;8.798;2023-07-02T06:31:48;27.45;;;9.40;;
24383;SDS011;12504;52.870;8.798;2023-07-02T06:34:14;32.92;;;8.82;;
24383;SDS011;12504;52.870;8.798;2023-07-02T06:36:40;23.98;;;10.48;;
24383;SDS011;12504;52.870;8.798;2023-07-02T06:39:06;25.52;;;10.35;;
24383;SDS011;12504;52.870;8.798;2023-07-02T06:41:32;24.92;;;8.45;;
24383;SDS011;12504;52.870;8.798;2023-07-02T06:43:57;18.83;;;9.57;;
24383;SDS011;12504;52.870;8.798;2023-07-02T06:46:23;18.88;;;8.75;;
24383;SDS011;12504;52.870;8.798;2023-07-02T06:48:48;23.80;;;8.95;;
24383;SDS011;12504;52.870;8.798;2023-07-02T06:51:14;37.83;;;10.75;;
24383;SDS011;12504;52.870;8.798;2023-07-02T06:53:42;21.73;;;9.52;;
24383;SDS011;12504;52.870;8.798;2023-07-02T06:56:09;22.77;;;8.82;;
24383;SDS011;12504;52.870;8.798;2023-07-02T06:58:35;24.00;;;8.65;;
24383;SDS011;12504;52.870;8.798;2023-07-02T07:01:01;31.70;;;9.45;;
24383;SDS011;12504;52.870;8.798;2023-07-02T07:03:26;29.08;;;9.00;;
24383;SDS011;12504;52.870;8.798;2023-07-02T07:05:52;21.88;;;10.10;;
24383;SDS011;12504;52.870;8.798;2023-07-02T07:08:18;26.30;;;9.18;;
24383;SDS011;12504;52.870;8.798;2023-07-02T07:10:43;26.08;;;9.45;;
24383;SDS011;12504;52.870;8.798;2023-07-02T07:13:10;17.63;;;8.63;;
24383;SDS011;12504;52.870;8.798;2023-07-02T07:15:39;20.60;;;9.00;;
24383;SDS011;12504;52.870;8.798;2023-07-02T07:18:04;30.77;;;11.43;;
24383;SDS011;12504;52.870;8.798;2023-07-02T07:20:30;22.33;;;9.85;;
24383;SDS011;12504;52.870;8.798;2023-07-02T07:22:56;21.40;;;9.13;;
24383;SDS011;12504;52.870;8.798;2023-07-02T07:25:22;22.50;;;10.15;;
24383;SDS011;12504;52.870;8.798;2023-07-02T07:27:48;20.90;;;8.80;;
24383;SDS011;12504;52.870;8.798;2023-07-02T07:30:14;25.10;;;10.60;;
24383;SDS011;12504;52.870;8.798;2023-07-02T07:32:40;23.77;;;8.50;;
24383;SDS011;12504;52.870;8.798;2023-07-02T07:35:06;21.92;;;7.93;;
24383;SDS011;12504;52.870;8.798;2023-07-02T07:37:32;21.38;;;8.90;;
24383;SDS011;12504;52.870;8.798;2023-07-02T07:39:58;23.98;;;9.15;;
24383;SDS011;12504;52.870;8.798;2023-07-02T07:42:23;21.35;;;8.05;;
24383;SDS011;12504;52.870;8.798;2023-07-02T07:44:49;18.65;;;6.93;;
24383;SDS011;12504;52.870;8.798;2023-07-02T07:47:14;15.18;;;8.30;;
24383;SDS011;12504;52.870;8.798;2023-07-02T07:49:40;20.75;;;8.02;;
24383;SDS011;12504;52.870;8.798;2023-07-02T07:52:06;15.00;;;8.13;;
24383;SDS011;12504;52.870;8.798;2023-07-02T07:54:32;14.00;;;6.72;;
24383;SDS011;12504;52.870;8.798;2023-07-02T07:56:59;17.83;;;7.18;;
24383;SDS011;12504;52.870;8.798;2023-07-02T07:59:25;21.17;;;7.20;;
24383;SDS011;12504;52.870;8.798;2023-07-02T08:01:50;16.13;;;7.38;;
24383;SDS011;12504;52.870;8.798;2023-07-02T08:04:16;20.30;;;9.00;;
24383;SDS011;12504;52.870;8.798;2023-07-02T08:06:41;19.23;;;7.28;;
24383;SDS011;12504;52.870;8.798;2023-07-02T08:09:07;21.02;;;7.43;;
24383;SDS011;12504;52.870;8.798;2023-07-02T08:11:34;13.13;;;7.47;;
24383;SDS011;12504;52.870;8.798;2023-07-02T08:13:59;17.00;;;7.13;;
24383;SDS011;12504;52.870;8.798;2023-07-02T08:16:25;18.20;;;7.97;;
24383;SDS011;12504;52.870;8.798;2023-07-02T08:18:50;18.45;;;7.57;;
24383;SDS011;12504;52.870;8.798;2023-07-02T08:21:16;14.52;;;6.68;;
24383;SDS011;12504;52.870;8.798;2023-07-02T08:23:42;13.95;;;6.68;;
24383;SDS011;12504;52.870;8.798;2023-07-02T08:26:09;17.33;;;7.68;;
24383;SDS011;12504;52.870;8.798;2023-07-02T08:28:36;21.20;;;8.65;;
24383;SDS011;12504;52.870;8.798;2023-07-02T08:31:03;18.38;;;6.40;;
24383;SDS011;12504;52.870;8.798;2023-07-02T08:33:29;16.83;;;7.18;;
24383;SDS011;12504;52.870;8.798;2023-07-02T08:35:55;18.33;;;7.65;;
24383;SDS011;12504;52.870;8.798;2023-07-02T08:38:22;20.90;;;8.48;;
24383;SDS011;12504;52.870;8.798;2023-07-02T08:40:51;12.77;;;6.85;;
24383;SDS011;12504;52.870;8.798;2023-07-02T08:43:16;20.20;;;7.70;;
24383;SDS011;12504;52.870;8.798;2023-07-02T08:45:42;19.38;;;7.05;;
24383;SDS011;12504;52.870;8.798;2023-07-02T08:48:08;17.73;;;7.88;;
24383;SDS011;12504;52.870;8.798;2023-07-02T08:50:35;13.23;;;7.13;;
24383;SDS011;12504;52.870;8.798;2023-07-02T08:53:01;20.50;;;6.75;;
24383;SDS011;12504;52.870;8.798;2023-07-02T08:55:27;14.20;;;7.75;;
24383;SDS011;12504;52.870;8.798;2023-07-02T08:57:56;16.55;;;6.97;;
24383;SDS011;12504;52.870;8.798;2023-07-02T09:00:25;15.15;;;7.60;;
24383;SDS011;12504;52.870;8.798;2023-07-02T09:02:51;19.52;;;7.72;;
24383;SDS011;12504;52.870;8.798;2023-07-02T09:05:16;22.10;;;7.78;;
24383;SDS011;12504;52.870;8.798;2023-07-02T09:07:43;16.17;;;6.47;;
24383;SDS011;12504;52.870;8.798;2023-07-02T09:10:11;22.67;;;9.65;;
24383;SDS011;12504;52.870;8.798;2023-07-02T09:12:37;17.92;;;7.45;;
24383;SDS011;12504;52.870;8.798;2023-07-02T09:15:06;15.45;;;8.02;;
24383;SDS011;12504;52.870;8.798;2023-07-02T09:17:33;17.83;;;7.87;;
24383;SDS011;12504;52.870;8.798;2023-07-02T09:20:03;19.92;;;7.22;;
24383;SDS011;12504;52.870;8.798;2023-07-02T09:22:32;16.70;;;7.03;;
24383;SDS011;12504;52.870;8.798;2023-07-02T09:24:58;20.08;;;7.80;;
24383;SDS011;12504;52.870;8.798;2023-07-02T09:30:11;16.80;;;8.07;;
24383;SDS011;12504;52.870;8.798;2023-07-02T09:32:39;15.18;;;6.82;;
24383;SDS011;12504;52.870;8.798;2023-07-02T09:35:05;18.02;;;8.15;;
24383;SDS011;12504;52.870;8.798;2023-07-02T09:37:31;15.40;;;7.32;;
24383;SDS011;12504;52.870;8.798;2023-07-02T09:39:57;17.55;;;7.70;;
24383;SDS011;12504;52.870;8.798;2023-07-02T09:42:24;14.10;;;7.15;;
24383;SDS011;12504;52.870;8.798;2023-07-02T09:44:54;14.10;;;6.65;;
24383;SDS011;12504;52.870;8.798;2023-07-02T09:47:23;13.75;;;7.07;;
24383;SDS011;12504;52.870;8.798;2023-07-02T09:49:54;23.27;;;8.07;;
24383;SDS011;12504;52.870;8.798;2023-07-02T09:52:24;13.68;;;6.20;;
24383;SDS011;12504;52.870;8.798;2023-07-02T09:54:52;25.35;;;6.95;;
24383;SDS011;12504;52.870;8.798;2023-07-02T09:57:18;17.23;;;7.55;;
24383;SDS011;12504;52.870;8.798;2023-07-02T09:59:43;20.85;;;7.80;;
24383;SDS011;12504;52.870;8.798;2023-07-02T10:02:09;14.40;;;7.47;;
24383;SDS011;12504;52.870;8.798;2023-07-02T10:04:42;17.90;;;7.15;;
24383;SDS011;12504;52.870;8.798;2023-07-02T10:07:09;17.75;;;8.02;;
24383;SDS011;12504;52.870;8.798;2023-07-02T10:09:36;13.02;;;6.95;;
24383;SDS011;12504;52.870;8.798;2023-07-02T10:12:16;18.02;;;8.77;;
24383;SDS011;12504;52.870;8.798;2023-07-02T10:14:42;18.05;;;8.18;;
24383;SDS011;12504;52.870;8.798;2023-07-02T10:17:08;15.68;;;8.25;;
24383;SDS011;12504;52.870;8.798;2023-07-02T10:19:34;16.60;;;7.20;;
24383;SDS011;12504;52.870;8.798;2023-07-02T10:22:00;16.42;;;7.43;;
24383;SDS011;12504;52.870;8.798;2023-07-02T10:24:27;18.40;;;7.60;;
24383;SDS011;12504;52.870;8.798;2023-07-02T10:29:25;15.13;;;7.07;;
24383;SDS011;12504;52.870;8.798;2023-07-02T10:31:53;16.38;;;7.65;;
24383;SDS011;12504;52.870;8.798;2023-07-02T10:34:30;13.13;;;7.03;;
24383;SDS011;12504;52.870;8.798;2023-07-02T10:36:56;15.23;;;7.90;;
24383;SDS011;12504;52.870;8.798;2023-07-02T10:39:23;14.05;;;7.55;;
24383;SDS011;12504;52.870;8.798;2023-07-02T10:41:48;10.48;;;6.72;;
24383;SDS011;12504;52.870;8.798;2023-07-02T10:44:14;12.30;;;6.15;;
24383;SDS011;12504;52.870;8.798;2023-07-02T10:46:44;14.25;;;5.55;;
24383;SDS011;12504;52.870;8.798;2023-07-02T10:49:10;9.23;;;5.95;;
24383;SDS011;12504;52.870;8.798;2023-07-02T10:51:37;13.38;;;6.65;;
24383;SDS011;12504;52.870;8.798;2023-07-02T10:54:03;17.58;;;6.68;;
24383;SDS011;12504;52.870;8.798;2023-07-02T10:56:30;14.30;;;6.40;;
24383;SDS011;12504;52.870;8.798;2023-07-02T10:58:56;16.67;;;6.68;;
24383;SDS011;12504;52.870;8.798;2023-07-02T11:01:23;13.90;;;6.63;;
24383;SDS011;12504;52.870;8.798;2023-07-02T11:03:58;20.20;;;6.38;;
24383;SDS011;12504;52.870;8.798;2023-07-02T11:06:25;15.63;;;6.22;;
24383;SDS011;12504;52.870;8.798;2023-07-02T11:08:52;11.05;;;5.45;;
24383;SDS011;12504;52.870;8.798;2023-07-02T11:11:19;13.43;;;5.22;;
24383;SDS011;12504;52.870;8.798;2023-07-02T11:13:46;12.20;;;5.93;;
24383;SDS011;12504;52.870;8.798;2023-07-02T11:16:19;9.05;;;5.30;;
24383;SDS011;12504;52.870;8.798;2023-07-02T11:18:45;8.88;;;4.68;;
24383;SDS011;12504;52.870;8.798;2023-07-02T11:21:10;8.73;;;4.47;;
24383;SDS011;12504;52.870;8.798;2023-07-02T11:23:36;9.82;;;3.47;;
24383;SDS011;12504;52.870;8.798;2023-07-02T11:26:02;8.90;;;4.15;;
24383;SDS011;12504;52.870;8.798;2023-07-02T11:28:29;5.20;;;3.17;;
24383;SDS011;12504;52.870;8.798;2023-07-02T11:30:56;7.40;;;3.00;;
24383;SDS011;12504;52.870;8.798;2023-07-02T11:33:33;9.20;;;4.25;;
24383;SDS011;12504;52.870;8.798;2023-07-02T11:35:59;10.38;;;3.60;;
24383;SDS011;12504;52.870;8.798;2023-07-02T11:38:24;10.65;;;3.92;;
24383;SDS011;12504;52.870;8.798;2023-07-02T11:40:51;8.70;;;3.58;;
24383;SDS011;12504;52.870;8.798;2023-07-02T11:43:16;10.90;;;3.08;;
24383;SDS011;12504;52.870;8.798;2023-07-02T11:45:42;7.65;;;3.33;;
24383;SDS011;12504;52.870;8.798;2023-07-02T11:48:08;7.85;;;3.40;;
24383;SDS011;12504;52.870;8.798;2023-07-02T11:50:34;7.55;;;3.97;;
24383;SDS011;12504;52.870;8.798;2023-07-02T11:52:59;10.95;;;3.13;;
24383;SDS011;12504;52.870;8.798;2023-07-02T11:55:25;6.32;;;3.42;;
24383;SDS011;12504;52.870;8.798;2023-07-02T11:57:50;11.38;;;3.15;;
24383;SDS011;12504;52.870;8.798;2023-07-02T12:00:16;6.13;;;2.72;;
24383;SDS011;12504;52.870;8.798;2023-07-02T12:02:42;5.85;;;3.17;;
24383;SDS011;12504;52.870;8.798;2023-07-02T12:05:08;8.55;;;3.67;;
24383;SDS011;12504;52.870;8.798;2023-07-02T12:07:34;7.03;;;3.60;;
24383;SDS011;12504;52.870;8.798;2023-07-02T12:10:00;9.15;;;3.63;;
24383;SDS011;12504;52.870;8.798;2023-07-02T12:12:25;7.32;;;3.55;;
24383;SDS011;12504;52.870;8.798;2023-07-02T12:14:51;7.45;;;3.83;;
24383;SDS011;12504;52.870;8.798;2023-07-02T12:17:17;14.65;;;3.97;;
24383;SDS011;12504;52.870;8.798;2023-07-02T12:19:42;8.95;;;3.83;;
24383;SDS011;12504;52.870;8.798;2023-07-02T12:22:08;12.07;;;4.72;;
24383;SDS011;12504;52.870;8.798;2023-07-02T12:24:33;10.77;;;4.50;;
24383;SDS011;12504;52.870;8.798;2023-07-02T12:26:59;10.82;;;5.00;;
24383;SDS011;12504;52.870;8.798;2023-07-02T12:29:24;14.70;;;4.82;;
24383;SDS011;12504;52.870;8.798;2023-07-02T12:31:50;14.20;;;4.85;;
24383;SDS011;12504;52.870;8.798;2023-07-02T12:34:16;10.45;;;4.43;;
24383;SDS011;12504;52.870;8.798;2023-07-02T12:36:41;8.50;;;4.70;;
24383;SDS011;12504;52.870;8.798;2023-07-02T12:39:07;10.63;;;3.60;;
24383;SDS011;12504;52.870;8.798;2023-07-02T12:41:33;7.03;;;3.60;;
24383;SDS011;12504;52.870;8.798;2023-07-02T12:43:59;8.30;;;4.30;;
24383;SDS011;12504;52.870;8.798;2023-07-02T12:46:24;10.40;;;3.97;;
24383;SDS011;12504;52.870;8.798;2023-07-02T12:48:50;8.65;;;4.07;;
24383;SDS011;12504;52.870;8.798;2023-07-02T12:51:15;9.52;;;4.22;;
24383;SDS011;12504;52.870;8.798;2023-07-02T12:53:41;8.63;;;3.65;;
24383;SDS011;12504;52.870;8.798;2023-07-02T12:56:06;14.40;;;4.10;;
24383;SDS011;12504;52.870;8.798;2023-07-02T12:58:32;10.30;;;4.13;;
24383;SDS011;12504;52.870;8.798;2023-07-02T13:00:57;9.90;;;4.00;;
24383;SDS011;12504;52.870;8.798;2023-07-02T13:03:23;7.00;;;4.03;;
24383;SDS011;12504;52.870;8.798;2023-07-02T13:05:50;8.23;;;3.67;;
24383;SDS011;12504;52.870;8.798;2023-07-02T13:08:18;6.00;;;3.08;;
24383;SDS011;12504;52.870;8.798;2023-07-02T13:10:44;14.05;;;3.90;;
24383;SDS011;12504;52.870;8.798;2023-07-02T13:13:09;7.30;;;3.33;;
24383;SDS011;12504;52.870;8.798;2023-07-02T13:15:35;9.30;;;4.00;;
24383;SDS011;12504;52.870;8.798;2023-07-02T13:18:00;6.85;;;3.55;;
24383;SDS011;12504;52.870;8.798;2023-07-02T13:20:26;9.73;;;4.18;;
24383;SDS011;12504;52.870;8.798;2023-07-02T13:22:52;9.05;;;4.15;;
24383;SDS011;12504;52.870;8.798;2023-07-02T13:25:17;12.82;;;4.43;;
24383;SDS011;12504;52.870;8.798;2023-07-02T13:27:43;7.00;;;3.58;;
24383;SDS011;12504;52.870;8.798;2023-07-02T13:30:09;7.25;;;4.03;;
24383;SDS011;12504;52.870;8.798;2023-07-02T13:32:34;13.60;;;4.10;;
24383;SDS011;12504;52.870;8.798;2023-07-02T13:35:00;6.15;;;3.38;;
24383;SDS011;12504;52.870;8.798;2023-07-02T13:37:26;8.65;;;4.22;;
24383;SDS011;12504;52.870;8.798;2023-07-02T13:39:51;8.25;;;3.92;;
24383;SDS011;12504;52.870;8.798;2023-07-02T13:42:17;10.73;;;3.88;;
24383;SDS011;12504;52.870;8.798;2023-07-02T13:44:43;9.90;;;3.88;;
24383;SDS011;12504;52.870;8.798;2023-07-02T13:47:08;9.85;;;4.28;;
24383;SDS011;12504;52.870;8.798;2023-07-02T13:49:34;14.73;;;5.05;;
24383;SDS011;12504;52.870;8.798;2023-07-02T13:52:00;8.60;;;4.15;;
24383;SDS011;12504;52.870;8.798;2023-07-02T13:54:25;10.23;;;3.50;;
24383;SDS011;12504;52.870;8.798;2023-07-02T13:56:52;9.25;;;3.72;;
24383;SDS011;12504;52.870;8.798;2023-07-02T13:59:18;9.13;;;4.20;;
24383;SDS011;12504;52.870;8.798;2023-07-02T14:01:45;11.05;;;4.07;;
24383;SDS011;12504;52.870;8.798;2023-07-02T14:04:11;14.57;;;4.82;;
24383;SDS011;12504;52.870;8.798;2023-07-02T14:06:37;8.30;;;4.22;;
24383;SDS011;12504;52.870;8.798;2023-07-02T14:09:03;7.40;;;3.70;;
24383;SDS011;12504;52.870;8.798;2023-07-02T14:11:30;10.55;;;4.07;;
24383;SDS011;12504;52.870;8.798;2023-07-02T14:13:56;12.48;;;4.00;;
24383;SDS011;12504;52.870;8.798;2023-07-02T14:16:22;9.65;;;3.40;;
24383;SDS011;12504;52.870;8.798;2023-07-02T14:18:49;9.55;;;3.58;;
24383;SDS011;12504;52.870;8.798;2023-07-02T14:21:15;7.43;;;3.95;;
24383;SDS011;12504;52.870;8.798;2023-07-02T14:23:41;12.55;;;4.22;;
24383;SDS011;12504;52.870;8.798;2023-07-02T14:26:06;7.60;;;3.90;;
24383;SDS011;12504;52.870;8.798;2023-07-02T14:28:33;8.30;;;4.43;;
24383;SDS011;12504;52.870;8.798;2023-07-02T14:30:59;11.32;;;3.88;;
24383;SDS011;12504;52.870;8.798;2023-07-02T14:33:26;9.65;;;4.00;;
24383;SDS011;12504;52.870;8.798;2023-07-02T14:35:53;8.27;;;3.83;;
24383;SDS011;12504;52.870;8.798;2023-07-02T14:38:19;12.48;;;4.40;;
24383;SDS011;12504;52.870;8.798;2023-07-02T14:40:45;5.45;;;3.13;;